Time;durP1;ratioP1;P1;durP2;ratioP2;P2;SDS_P1;SDS_P2;PMS_P1;PMS_P2;Temp;Humidity;BMP_temperature;BMP_pressure;BME280_temperature;BME280_humidity;BME280_pressure;Samples;Min_cycle;Max_cycle;Signal;HPM_P1;HPM_P2
2024/04/19 00:01:35;;;;;;;;;;;;;;;-128.00;-1.00;-1.00;103406;1255;1003433;-75
2024/04/19 00:04:03;;;;;;;;;;;;;;;-128.00;-1.00;-1.00;103415;1254;1003317;-74
2024/04/19 00:06:30;;;;;;;;;;;;;;;-128.00;-1.00;-1.00;103364;1259;1003048;-76
2024/04/19 00:08:58;;;;;;;;;;;;;;;-128.00;-1.00;-1.00;103355;1260;1003290;-75
2024/04/19 00:11:25;;;;;;;;;;;;;;;-128.00;-1.00;-1.00;103440;1259;1002950;-76
2024/04/19 00:13:53;;;;;;;;;;;;;;;-128.00;-1.00;-1.00;103429;1254;1004450;-76
2024/04/19 00:16:21;;;;;;;;;;;;;;;-128.00;-1.00;-1.00;103370;1260;1003451;-75
2024/04/19 00:18:48;;;;;;;;;;;;;;;-128.00;-1.00;-1.00;103358;1259;1016220;-75
2024/04/19 00:21:16;;;;;;;;;;;;;;;-128.00;-1.00;-1.00;103399;1255;1002708;-76
2024/04/19 00:23:43;;;;;;;;;;;;;;;-128.00;-1.00;-1.00;103770;1259;1003125;-77
2024/04/19 00:26:10;;;;;;;;;;;;;;;-128.00;-1.00;-1.00;103362;1254;1004169;-77
2024/04/19 00:28:38;;;;;;;;;;;;;;;-128.00;-1.00;-1.00;103437;1260;1002804;-74
2024/04/19 00:31:06;;;;;;;;;;;;;;;-128.00;-1.00;-1.00;103419;1260;1004125;-77
2024/04/19 00:33:33;;;;;;;;;;;;;;;-128.00;-1.00;-1.00;103587;1254;1002955;-75
2024/04/19 00:36:01;;;;;;;;;;;;;;;-128.00;-1.00;-1.00;103366;1259;1002977;-76
2024/04/19 00:38:28;;;;;;;;;;;;;;;-128.00;-1.00;-1.00;103351;1254;1003277;-75
2024/04/19 00:40:55;;;;;;;;;;;;;;;-128.00;-1.00;-1.00;103402;1254;1002684;-75
2024/04/19 00:43:23;;;;;;;;;;;;;;;-128.00;-1.00;-1.00;103375;1259;1003001;-76
2024/04/19 00:45:50;;;;;;;;;;;;;;;-128.00;-1.00;-1.00;103387;1254;1002520;-76
2024/04/19 00:48:19;;;;;;;;;;;;;;;-128.00;-1.00;-1.00;103392;1254;1013964;-74
2024/04/19 00:50:56;;;;;;;;;;;;;;;-128.00;-1.00;-1.00;103390;1259;1013583;-77
2024/04/19 00:53:27;;;;;;;;;;;;;;;-128.00;-1.00;-1.00;103335;1260;1013220;-77
2024/04/19 00:55:56;;;;;;;;;;;;;;;-128.00;-1.00;-1.00;103347;1254;1013037;-77
2024/04/19 00:58:24;;;;;;;;;;;;;;;-128.00;-1.00;-1.00;103396;1257;1012576;-75
2024/04/19 01:00:52;;;;;;;;;;;;;;;-128.00;-1.00;-1.00;103432;1259;1009984;-76
2024/04/19 01:03:19;;;;;;;;;;;;;;;-128.00;-1.00;-1.00;103394;1254;1004389;-75
2024/04/19 01:05:47;;;;;;;;;;;;;;;-128.00;-1.00;-1.00;103342;1254;1002838;-75
2024/04/19 01:08:27;;;;;;;;;;;;;;;-128.00;-1.00;-1.00;103328;1260;1012380;-75
2024/04/19 01:10:54;;;;;;;;;;;;;;;-128.00;-1.00;-1.00;103387;1254;1002795;-76
2024/04/19 01:13:21;;;;;;;;;;;;;;;-128.00;-1.00;-1.00;103409;1254;1002844;-75
2024/04/19 01:15:49;;;;;;;;;;;;;;;-128.00;-1.00;-1.00;103409;1257;1002621;-76
2024/04/19 01:18:18;;;;;;;;;;;;;;;-128.00;-1.00;-1.00;103366;1260;1003219;-75
2024/04/19 01:20:46;;;;;;;;;;;;;;;-128.00;-1.00;-1.00;103549;1254;1012920;-74
2024/04/19 01:23:14;;;;;;;;;;;;;;;-128.00;-1.00;-1.00;103506;1254;1002798;-76
2024/04/19 01:25:41;;;;;;;;;;;;;;;-128.00;-1.00;-1.00;103590;1254;1003041;-76
2024/04/19 01:28:09;;;;;;;;;;;;;;;-128.00;-1.00;-1.00;103535;1255;1002629;-75
2024/04/19 01:30:41;;;;;;;;;;;;;;;-128.00;-1.00;-1.00;103774;1260;1001981;-76
2024/04/19 01:33:08;;;;;;;;;;;;;;;-128.00;-1.00;-1.00;103680;1259;1013120;-76
2024/04/19 01:35:36;;;;;;;;;;;;;;;-128.00;-1.00;-1.00;103722;1260;1002626;-75
2024/04/19 01:38:03;;;;;;;;;;;;;;;-128.00;-1.00;-1.00;103787;1260;1004198;-73
2024/04/19 01:40:31;;;;;;;;;;;;;;;-128.00;-1.00;-1.00;103750;1254;1002660;-75
2024/04/19 01:42:58;;;;;;;;;;;;;;;-128.00;-1.00;-1.00;103827;1261;1003064;-76
2024/04/19 01:45:25;;;;;;;;;;;;;;;-128.00;-1.00;-1.00;103792;1260;1002477;-75
2024/04/19 01:47:53;;;;;;;;;;;;;;;-128.00;-1.00;-1.00;103803;1260;1002884;-74
2024/04/19 01:50:20;;;;;;;;;;;;;;;-128.00;-1.00;-1.00;103677;1257;1004543;-76
2024/04/19 01:52:48;;;;;;;;;;;;;;;-128.00;-1.00;-1.00;103507;1262;1002768;-76
2024/04/19 01:55:17;;;;;;;;;;;;;;;-128.00;-1.00;-1.00;103529;1257;1002854;-75
2024/04/19 01:57:47;;;;;;;;;;;;;;;-128.00;-1.00;-1.00;103440;1257;1012535;-75
2024/04/19 02:00:15;;;;;;;;;;;;;;;-128.00;-1.00;-1.00;103391;1257;1004207;-74
2024/04/19 02:02:42;;;;;;;;;;;;;;;-128.00;-1.00;-1.00;103171;1260;1004801;-76
2024/04/19 02:05:10;;;;;;;;;;;;;;;-128.00;-1.00;-1.00;103076;1266;1002842;-76
2024/04/19 02:07:37;;;;;;;;;;;;;;;-128.00;-1.00;-1.00;103038;1259;1002759;-76
2024/04/19 02:10:07;;;;;;;;;;;;;;;-128.00;-1.00;-1.00;103084;1260;1003783;-75
2024/04/19 02:12:35;;;;;;;;;;;;;;;-128.00;-1.00;-1.00;103035;1266;1013401;-76
2024/04/19 02:15:02;;;;;;;;;;;;;;;-128.00;-1.00;-1.00;103107;1260;1002997;-75
2024/04/19 02:17:29;;;;;;;;;;;;;;;-128.00;-1.00;-1.00;103105;1259;1002683;-76
2024/04/19 02:19:57;;;;;;;;;;;;;;;-128.00;-1.00;-1.00;103213;1260;1002831;-76
2024/04/19 02:22:25;;;;;;;;;;;;;;;-128.00;-1.00;-1.00;103339;1264;1002643;-76
2024/04/19 02:24:52;;;;;;;;;;;;;;;-128.00;-1.00;-1.00;103344;1262;1003396;-77
2024/04/19 02:32:53;;;;;;;;;;;;;;;-128.00;-1.00;-1.00;103255;1257;1013620;-76
2024/04/19 02:35:20;;;;;;;;;;;;;;;-128.00;-1.00;-1.00;103346;1254;1002913;-75
2024/04/19 02:37:47;;;;;;;;;;;;;;;-128.00;-1.00;-1.00;103367;1259;1002718;-76
2024/04/19 02:40:15;;;;;;;;;;;;;;;-128.00;-1.00;-1.00;103322;1254;1002494;-77
2024/04/19 02:42:42;;;;;;;;;;;;;;;-128.00;-1.00;-1.00;103398;1254;1002784;-76
2024/04/19 02:45:10;;;;;;;;;;;;;;;-128.00;-1.00;-1.00;103328;1259;1002886;-75
2024/04/19 02:47:38;;;;;;;;;;;;;;;-128.00;-1.00;-1.00;103367;1259;1002721;-76
2024/04/19 02:50:05;;;;;;;;;;;;;;;-128.00;-1.00;-1.00;103333;1254;1003068;-75
2024/04/19 02:52:33;;;;;;;;;;;;;;;-128.00;-1.00;-1.00;103326;1260;1003884;-74
2024/04/19 02:55:00;;;;;;;;;;;;;;;-128.00;-1.00;-1.00;103234;1255;1004370;-73
2024/04/19 02:57:32;;;;;;;;;;;;;;;-128.00;-1.00;-1.00;103266;1259;1016647;-73
2024/04/19 03:00:00;;;;;;;;;;;;;;;-128.00;-1.00;-1.00;103372;1254;1002770;-75
2024/04/19 03:02:43;;;;;;;;;;;;;;;-128.00;-1.00;-1.00;103399;1254;1013642;-73
2024/04/19 03:05:11;;;;;;;;;;;;;;;-128.00;-1.00;-1.00;103317;1254;1002977;-74
2024/04/19 03:07:38;;;;;;;;;;;;;;;-128.00;-1.00;-1.00;103380;1261;1011498;-75
2024/04/19 03:10:06;;;;;;;;;;;;;;;-128.00;-1.00;-1.00;103256;1254;1004014;-77
2024/04/19 03:12:33;;;;;;;;;;;;;;;-128.00;-1.00;-1.00;103332;1259;1002850;-75
2024/04/19 03:15:01;;;;;;;;;;;;;;;-128.00;-1.00;-1.00;103463;1261;1002602;-75
2024/04/19 03:17:31;;;;;;;;;;;;;;;-128.00;-1.00;-1.00;103299;1254;1010929;-75
2024/04/19 03:19:59;;;;;;;;;;;;;;;-128.00;-1.00;-1.00;103451;1254;1002920;-77
2024/04/19 03:22:26;;;;;;;;;;;;;;;-128.00;-1.00;-1.00;103264;1262;1003326;-75
2024/04/19 03:24:54;;;;;;;;;;;;;;;-128.00;-1.00;-1.00;103019;1257;1002789;-74
2024/04/19 03:27:21;;;;;;;;;;;;;;;-128.00;-1.00;-1.00;103218;1258;1002425;-75
2024/04/19 03:29:52;;;;;;;;;;;;;;;-128.00;-1.00;-1.00;103230;1257;1010969;-73
2024/04/19 03:32:19;;;;;;;;;;;;;;;-128.00;-1.00;-1.00;103218;1257;1002915;-72
2024/04/19 03:34:47;;;;;;;;;;;;;;;-128.00;-1.00;-1.00;103185;1257;1002915;-74
2024/04/19 03:37:14;;;;;;;;;;;;;;;-128.00;-1.00;-1.00;102974;1257;1003606;-72
2024/04/19 03:39:42;;;;;;;;;;;;;;;-128.00;-1.00;-1.00;103054;1257;1012616;-74
2024/04/19 03:42:14;;;;;;;;;;;;;;;-128.00;-1.00;-1.00;102986;1257;1010539;-74
2024/04/19 03:47:29;;;;;;;;;;;;;;;-128.00;-1.00;-1.00;102967;1264;1013530;-76
2024/04/19 03:49:57;;;;;;;;;;;;;;;-128.00;-1.00;-1.00;103196;1262;1002366;-73
2024/04/19 03:52:24;;;;;;;;;;;;;;;-128.00;-1.00;-1.00;102958;1258;1002981;-73
2024/04/19 03:54:51;;;;;;;;;;;;;;;-128.00;-1.00;-1.00;103291;1259;1003634;-75
2024/04/19 03:57:19;;;;;;;;;;;;;;;-128.00;-1.00;-1.00;103291;1254;1003131;-74
2024/04/19 03:59:46;;;;;;;;;;;;;;;-128.00;-1.00;-1.00;103344;1259;1003375;-75
2024/04/19 04:02:13;;;;;;;;;;;;;;;-128.00;-1.00;-1.00;103052;1263;1002315;-74
2024/04/19 04:04:53;;;;;;;;;;;;;;;-128.00;-1.00;-1.00;103351;1254;1013118;-75
2024/04/19 04:07:20;;;;;;;;;;;;;;;-128.00;-1.00;-1.00;102945;1263;1002728;-75
2024/04/19 04:09:48;;;;;;;;;;;;;;;-128.00;-1.00;-1.00;103291;1259;1002858;-75
2024/04/19 04:12:16;;;;;;;;;;;;;;;-128.00;-1.00;-1.00;103272;1254;1002378;-76
2024/04/19 04:14:43;;;;;;;;;;;;;;;-128.00;-1.00;-1.00;103317;1259;1002790;-77
2024/04/19 04:17:10;;;;;;;;;;;;;;;-128.00;-1.00;-1.00;103142;1258;1002838;-76
2024/04/19 04:19:38;;;;;;;;;;;;;;;-128.00;-1.00;-1.00;103136;1257;1003098;-76
2024/04/19 04:22:05;;;;;;;;;;;;;;;-128.00;-1.00;-1.00;103015;1264;1003134;-75
2024/04/19 04:24:32;;;;;;;;;;;;;;;-128.00;-1.00;-1.00;103090;1264;1002870;-74
2024/04/19 04:27:00;;;;;;;;;;;;;;;-128.00;-1.00;-1.00;103017;1257;1003173;-75
2024/04/19 04:29:34;;;;;;;;;;;;;;;-128.00;-1.00;-1.00;103039;1257;1002889;-75
2024/04/19 04:32:02;;;;;;;;;;;;;;;-128.00;-1.00;-1.00;103236;1257;1009766;-74
2024/04/19 04:34:30;;;;;;;;;;;;;;;-128.00;-1.00;-1.00;103203;1257;1003978;-75
2024/04/19 04:36:58;;;;;;;;;;;;;;;-128.00;-1.00;-1.00;102975;1265;1018773;-75
2024/04/19 04:39:25;;;;;;;;;;;;;;;-128.00;-1.00;-1.00;103010;1264;1002991;-75
2024/04/19 04:41:53;;;;;;;;;;;;;;;-128.00;-1.00;-1.00;102962;1260;1002630;-74
2024/04/19 04:44:20;;;;;;;;;;;;;;;-128.00;-1.00;-1.00;102971;1260;1002288;-75
2024/04/19 04:46:48;;;;;;;;;;;;;;;-128.00;-1.00;-1.00;103015;1265;1003234;-73
2024/04/19 04:49:15;;;;;;;;;;;;;;;-128.00;-1.00;-1.00;102955;1263;1003094;-72
2024/04/19 04:51:43;;;;;;;;;;;;;;;-128.00;-1.00;-1.00;102932;1263;1003840;-73
2024/04/19 04:54:10;;;;;;;;;;;;;;;-128.00;-1.00;-1.00;103016;1262;1002512;-75
2024/04/19 04:56:37;;;;;;;;;;;;;;;-128.00;-1.00;-1.00;102931;1257;1002624;-74
2024/04/19 04:59:05;;;;;;;;;;;;;;;-128.00;-1.00;-1.00;103370;1258;1002955;-77
2024/04/19 05:01:33;;;;;;;;;;;;;;;-128.00;-1.00;-1.00;103199;1263;1003991;-76
2024/04/19 05:04:01;;;;;;;;;;;;;;;-128.00;-1.00;-1.00;103250;1264;1013788;-75
2024/04/19 05:06:29;;;;;;;;;;;;;;;-128.00;-1.00;-1.00;103370;1259;1003191;-74
2024/04/19 05:08:56;;;;;;;;;;;;;;;-128.00;-1.00;-1.00;103477;1254;1003282;-75
2024/04/19 05:11:23;;;;;;;;;;;;;;;-128.00;-1.00;-1.00;103536;1259;1002421;-74
2024/04/19 05:13:51;;;;;;;;;;;;;;;-128.00;-1.00;-1.00;103399;1254;1002821;-74
2024/04/19 05:16:18;;;;;;;;;;;;;;;-128.00;-1.00;-1.00;103331;1254;1002869;-76
2024/04/19 05:18:51;;;;;;;;;;;;;;;-128.00;-1.00;-1.00;103415;1259;1012699;-75
2024/04/19 05:21:18;;;;;;;;;;;;;;;-128.00;-1.00;-1.00;103345;1262;1010050;-76
2024/04/19 05:23:47;;;;;;;;;;;;;;;-128.00;-1.00;-1.00;103558;1254;1003946;-74
2024/04/19 05:26:15;;;;;;;;;;;;;;;-128.00;-1.00;-1.00;103459;1254;1013575;-74
2024/04/19 05:28:42;;;;;;;;;;;;;;;-128.00;-1.00;-1.00;103469;1254;1003800;-75
2024/04/19 05:31:10;;;;;;;;;;;;;;;-128.00;-1.00;-1.00;103429;1254;1002588;-73
2024/04/19 05:33:39;;;;;;;;;;;;;;;-128.00;-1.00;-1.00;103542;1254;1002596;-76
2024/04/19 05:36:07;;;;;;;;;;;;;;;-128.00;-1.00;-1.00;103631;1254;1011672;-75
2024/04/19 05:38:34;;;;;;;;;;;;;;;-128.00;-1.00;-1.00;103427;1254;1005184;-76
2024/04/19 05:41:01;;;;;;;;;;;;;;;-128.00;-1.00;-1.00;103576;1255;1003237;-75
2024/04/19 05:43:29;;;;;;;;;;;;;;;-128.00;-1.00;-1.00;103409;1254;1003087;-75
2024/04/19 05:45:56;;;;;;;;;;;;;;;-128.00;-1.00;-1.00;103535;1254;1003071;-74
2024/04/19 05:48:24;;;;;;;;;;;;;;;-128.00;-1.00;-1.00;103573;1259;1002794;-76
2024/04/19 05:50:51;;;;;;;;;;;;;;;-128.00;-1.00;-1.00;103480;1254;1002829;-75
2024/04/19 05:53:18;;;;;;;;;;;;;;;-128.00;-1.00;-1.00;103501;1260;1002816;-78
2024/04/19 05:55:46;;;;;;;;;;;;;;;-128.00;-1.00;-1.00;103430;1257;1003544;-76
2024/04/19 05:58:15;;;;;;;;;;;;;;;-128.00;-1.00;-1.00;103411;1257;1004902;-76
2024/04/19 06:00:43;;;;;;;;;;;;;;;-128.00;-1.00;-1.00;103393;1257;1012087;-74
2024/04/19 06:03:11;;;;;;;;;;;;;;;-128.00;-1.00;-1.00;103339;1262;1012470;-73
2024/04/19 06:05:39;;;;;;;;;;;;;;;-128.00;-1.00;-1.00;103309;1256;1002689;-77
2024/04/19 06:08:07;;;;;;;;;;;;;;;-128.00;-1.00;-1.00;103482;1257;1002862;-75
2024/04/19 06:10:35;;;;;;;;;;;;;;;-128.00;-1.00;-1.00;103311;1263;1010605;-75
2024/04/19 06:13:03;;;;;;;;;;;;;;;-128.00;-1.00;-1.00;103400;1257;1002771;-74
2024/04/19 06:15:30;;;;;;;;;;;;;;;-128.00;-1.00;-1.00;103222;1262;1003554;-77
2024/04/19 06:17:59;;;;;;;;;;;;;;;-128.00;-1.00;-1.00;103232;1256;1002957;-77
2024/04/19 06:20:27;;;;;;;;;;;;;;;-128.00;-1.00;-1.00;103064;1259;1013990;-76
2024/04/19 06:22:54;;;;;;;;;;;;;;;-128.00;-1.00;-1.00;103671;1256;1002376;-78
2024/04/19 06:25:22;;;;;;;;;;;;;;;-128.00;-1.00;-1.00;103612;1259;1010922;-76
2024/04/19 06:27:50;;;;;;;;;;;;;;;-128.00;-1.00;-1.00;106596;1254;1002218;-75
2024/04/19 06:30:17;;;;;;;;;;;;;;;-128.00;-1.00;-1.00;106628;1254;1002974;-76
2024/04/19 06:36:22;;;;;;;;;;;;;;;-128.00;-1.00;-1.00;104062;1256;1010246;-77
2024/04/19 06:39:27;;;;;;;;;;;;;;;-128.00;-1.00;-1.00;103484;1259;1003290;-77
2024/04/19 06:42:01;;;;;;;;;;;;;;;-128.00;-1.00;-1.00;103590;1259;1013324;-78
2024/04/19 06:44:29;;;;;;;;;;;;;;;-128.00;-1.00;-1.00;103511;1259;1012572;-75
2024/04/19 06:46:57;;;;;;;;;;;;;;;-128.00;-1.00;-1.00;103335;1254;1003321;-75
2024/04/19 06:49:24;;;;;;;;;;;;;;;-128.00;-1.00;-1.00;103458;1254;1002595;-77
2024/04/19 06:51:52;;;;;;;;;;;;;;;-128.00;-1.00;-1.00;103386;1260;1002661;-75
2024/04/19 06:54:19;;;;;;;;;;;;;;;-128.00;-1.00;-1.00;103421;1254;1002945;-75
2024/04/19 06:56:47;;;;;;;;;;;;;;;-128.00;-1.00;-1.00;103488;1259;1002774;-73
2024/04/19 06:59:14;;;;;;;;;;;;;;;-128.00;-1.00;-1.00;103370;1254;1002734;-74
2024/04/19 07:01:43;;;;;;;;;;;;;;;-128.00;-1.00;-1.00;103446;1254;1002588;-74
2024/04/19 07:04:12;;;;;;;;;;;;;;;-128.00;-1.00;-1.00;103369;1259;1010708;-74
2024/04/19 07:06:40;;;;;;;;;;;;;;;-128.00;-1.00;-1.00;103344;1254;1012788;-75
2024/04/19 07:09:15;;;;;;;;;;;;;;;-128.00;-1.00;-1.00;103304;1256;1012583;-74
2024/04/19 07:11:48;;;;;;;;;;;;;;;-128.00;-1.00;-1.00;103288;1259;1012574;-76
2024/04/19 07:14:15;;;;;;;;;;;;;;;-128.00;-1.00;-1.00;103224;1254;1003713;-73
2024/04/19 07:16:43;;;;;;;;;;;;;;;-128.00;-1.00;-1.00;103224;1254;1003312;-73
2024/04/19 07:19:10;;;;;;;;;;;;;;;-128.00;-1.00;-1.00;103201;1254;1002534;-76
2024/04/19 07:21:38;;;;;;;;;;;;;;;-128.00;-1.00;-1.00;103240;1259;1003894;-74
2024/04/19 07:24:06;;;;;;;;;;;;;;;-128.00;-1.00;-1.00;103227;1254;1003632;-72
2024/04/19 07:26:34;;;;;;;;;;;;;;;-128.00;-1.00;-1.00;103230;1254;1002542;-72
2024/04/19 07:29:02;;;;;;;;;;;;;;;-128.00;-1.00;-1.00;103214;1259;1010828;-75
2024/04/19 07:31:29;;;;;;;;;;;;;;;-128.00;-1.00;-1.00;103191;1259;1002683;-77
2024/04/19 07:33:57;;;;;;;;;;;;;;;-128.00;-1.00;-1.00;103288;1259;1003641;-74
2024/04/19 07:36:24;;;;;;;;;;;;;;;-128.00;-1.00;-1.00;103264;1254;1004535;-75
2024/04/19 07:38:52;;;;;;;;;;;;;;;-128.00;-1.00;-1.00;103233;1254;1003234;-77
2024/04/19 07:41:19;;;;;;;;;;;;;;;-128.00;-1.00;-1.00;103276;1259;1003112;-74
2024/04/19 07:43:46;;;;;;;;;;;;;;;-128.00;-1.00;-1.00;103200;1259;1003247;-75
2024/04/19 07:46:22;;;;;;;;;;;;;;;-128.00;-1.00;-1.00;103257;1254;1012582;-75
2024/04/19 07:48:49;;;;;;;;;;;;;;;-128.00;-1.00;-1.00;103326;1259;1004517;-73
2024/04/19 07:51:17;;;;;;;;;;;;;;;-128.00;-1.00;-1.00;103384;1254;1003393;-77
2024/04/19 07:53:44;;;;;;;;;;;;;;;-128.00;-1.00;-1.00;103311;1254;1002861;-75
2024/04/19 07:56:12;;;;;;;;;;;;;;;-128.00;-1.00;-1.00;103306;1259;1003970;-75
2024/04/19 07:58:39;;;;;;;;;;;;;;;-128.00;-1.00;-1.00;103334;1259;1002768;-73
2024/04/19 08:01:06;;;;;;;;;;;;;;;-128.00;-1.00;-1.00;103411;1254;1003331;-76
2024/04/19 08:03:35;;;;;;;;;;;;;;;-128.00;-1.00;-1.00;103381;1254;1002741;-74
2024/04/19 08:06:03;;;;;;;;;;;;;;;-128.00;-1.00;-1.00;103247;1254;1010795;-74
2024/04/19 08:08:30;;;;;;;;;;;;;;;-128.00;-1.00;-1.00;103258;1254;1003125;-74
2024/04/19 08:10:59;;;;;;;;;;;;;;;-128.00;-1.00;-1.00;103280;1259;1003067;-76
2024/04/19 08:13:26;;;;;;;;;;;;;;;-128.00;-1.00;-1.00;103274;1256;1012599;-74
2024/04/19 08:15:53;;;;;;;;;;;;;;;-128.00;-1.00;-1.00;103270;1254;1002723;-74
2024/04/19 08:18:24;;;;;;;;;;;;;;;-128.00;-1.00;-1.00;103292;1259;1002675;-72
2024/04/19 08:20:52;;;;;;;;;;;;;;;-128.00;-1.00;-1.00;103270;1255;1013543;-74
2024/04/19 08:23:20;;;;;;;;;;;;;;;-128.00;-1.00;-1.00;103313;1259;1002569;-75
2024/04/19 08:25:47;;;;;;;;;;;;;;;-128.00;-1.00;-1.00;103136;1256;1002568;-80
2024/04/19 08:28:15;;;;;;;;;;;;;;;-128.00;-1.00;-1.00;103176;1254;1002668;-78
2024/04/19 08:30:43;;;;;;;;;;;;;;;-128.00;-1.00;-1.00;103143;1254;1011565;-76
2024/04/19 08:33:11;;;;;;;;;;;;;;;-128.00;-1.00;-1.00;103139;1259;1002656;-77
2024/04/19 08:35:38;;;;;;;;;;;;;;;-128.00;-1.00;-1.00;103149;1254;1003648;-80
2024/04/19 08:38:06;;;;;;;;;;;;;;;-128.00;-1.00;-1.00;103146;1254;1002729;-78
2024/04/19 08:40:33;;;;;;;;;;;;;;;-128.00;-1.00;-1.00;103157;1254;1002858;-74
2024/04/19 08:43:00;;;;;;;;;;;;;;;-128.00;-1.00;-1.00;103163;1256;1004937;-74
2024/04/19 08:45:28;;;;;;;;;;;;;;;-128.00;-1.00;-1.00;103150;1254;1002620;-75
2024/04/19 08:47:55;;;;;;;;;;;;;;;-128.00;-1.00;-1.00;103147;1254;1002707;-75
2024/04/19 08:50:23;;;;;;;;;;;;;;;-128.00;-1.00;-1.00;103139;1254;1004336;-74
2024/04/19 08:52:50;;;;;;;;;;;;;;;-128.00;-1.00;-1.00;103144;1254;1002977;-75
2024/04/19 08:55:38;;;;;;;;;;;;;;;-128.00;-1.00;-1.00;103131;1254;1011722;-75
2024/04/19 08:58:05;;;;;;;;;;;;;;;-128.00;-1.00;-1.00;103112;1255;1004758;-78
2024/04/19 09:00:33;;;;;;;;;;;;;;;-128.00;-1.00;-1.00;103181;1254;1003140;-75
2024/04/19 09:03:00;;;;;;;;;;;;;;;-128.00;-1.00;-1.00;103120;1254;1002721;-74
2024/04/19 09:05:28;;;;;;;;;;;;;;;-128.00;-1.00;-1.00;103098;1254;1003337;-74
2024/04/19 09:07:56;;;;;;;;;;;;;;;-128.00;-1.00;-1.00;103130;1254;1003086;-74
2024/04/19 09:10:24;;;;;;;;;;;;;;;-128.00;-1.00;-1.00;103136;1254;1002688;-77
2024/04/19 09:12:51;;;;;;;;;;;;;;;-128.00;-1.00;-1.00;103132;1254;1015858;-75
2024/04/19 09:15:20;;;;;;;;;;;;;;;-128.00;-1.00;-1.00;103172;1254;1003061;-74
2024/04/19 09:17:48;;;;;;;;;;;;;;;-128.00;-1.00;-1.00;103188;1254;1009471;-73
2024/04/19 09:20:16;;;;;;;;;;;;;;;-128.00;-1.00;-1.00;102935;1262;1002993;-74
2024/04/19 09:22:43;;;;;;;;;;;;;;;-128.00;-1.00;-1.00;103211;1254;1004089;-75
2024/04/19 09:25:15;;;;;;;;;;;;;;;-128.00;-1.00;-1.00;103188;1260;1002667;-77
2024/04/19 09:27:43;;;;;;;;;;;;;;;-128.00;-1.00;-1.00;103159;1254;1015684;-77
2024/04/19 09:30:11;;;;;;;;;;;;;;;-128.00;-1.00;-1.00;103102;1253;1003176;-80
2024/04/19 09:32:39;;;;;;;;;;;;;;;-128.00;-1.00;-1.00;103163;1254;1002352;-82
2024/04/19 09:35:06;;;;;;;;;;;;;;;-128.00;-1.00;-1.00;103187;1260;1002280;-74
2024/04/19 09:37:34;;;;;;;;;;;;;;;-128.00;-1.00;-1.00;103152;1253;1005368;-75
2024/04/19 09:40:02;;;;;;;;;;;;;;;-128.00;-1.00;-1.00;103175;1254;1013142;-75
2024/04/19 09:42:29;;;;;;;;;;;;;;;-128.00;-1.00;-1.00;103209;1256;1004606;-76
2024/04/19 09:44:57;;;;;;;;;;;;;;;-128.00;-1.00;-1.00;103228;1259;1011155;-80
2024/04/19 09:47:25;;;;;;;;;;;;;;;-128.00;-1.00;-1.00;103176;1260;1002905;-76
2024/04/19 09:49:52;;;;;;;;;;;;;;;-128.00;-1.00;-1.00;103190;1259;1002871;-81
2024/04/19 09:52:21;;;;;;;;;;;;;;;-128.00;-1.00;-1.00;103182;1253;1003407;-75
2024/04/19 09:55:04;;;;;;;;;;;;;;;-128.00;-1.00;-1.00;103189;1253;1010875;-79
2024/04/19 09:57:31;;;;;;;;;;;;;;;-128.00;-1.00;-1.00;103121;1259;1010749;-80
2024/04/19 09:59:59;;;;;;;;;;;;;;;-128.00;-1.00;-1.00;103201;1254;1003105;-80
2024/04/19 10:02:26;;;;;;;;;;;;;;;-128.00;-1.00;-1.00;103146;1253;1002661;-75
2024/04/19 10:05:03;;;;;;;;;;;;;;;-128.00;-1.00;-1.00;103178;1259;1012746;-82
2024/04/19 10:07:32;;;;;;;;;;;;;;;-128.00;-1.00;-1.00;102893;1254;1010448;-82
2024/04/19 10:09:59;;;;;;;;;;;;;;;-128.00;-1.00;-1.00;103185;1259;1003246;-81
2024/04/19 10:12:27;;;;;;;;;;;;;;;-128.00;-1.00;-1.00;103179;1254;1004127;-75
2024/04/19 10:14:54;;;;;;;;;;;;;;;-128.00;-1.00;-1.00;103153;1253;1003195;-80
2024/04/19 10:17:22;;;;;;;;;;;;;;;-128.00;-1.00;-1.00;103206;1253;1003042;-80
2024/04/19 10:19:50;;;;;;;;;;;;;;;-128.00;-1.00;-1.00;103217;1254;1002872;-76
2024/04/19 10:22:22;;;;;;;;;;;;;;;-128.00;-1.00;-1.00;103338;1253;1011122;-74
2024/04/19 10:24:59;;;;;;;;;;;;;;;-128.00;-1.00;-1.00;103282;1259;1012978;-82
2024/04/19 10:27:28;;;;;;;;;;;;;;;-128.00;-1.00;-1.00;103211;1254;1013404;-76
2024/04/19 10:29:59;;;;;;;;;;;;;;;-128.00;-1.00;-1.00;103281;1259;1013273;-77
2024/04/19 10:32:28;;;;;;;;;;;;;;;-128.00;-1.00;-1.00;103212;1254;1010304;-73
2024/04/19 10:34:55;;;;;;;;;;;;;;;-128.00;-1.00;-1.00;103170;1254;1010636;-77
2024/04/19 10:37:23;;;;;;;;;;;;;;;-128.00;-1.00;-1.00;103165;1254;1003027;-84
2024/04/19 10:39:51;;;;;;;;;;;;;;;-128.00;-1.00;-1.00;103217;1259;1002982;-80
2024/04/19 10:42:19;;;;;;;;;;;;;;;-128.00;-1.00;-1.00;103202;1255;1002676;-82
2024/04/19 10:44:48;;;;;;;;;;;;;;;-128.00;-1.00;-1.00;103210;1254;1010642;-77
2024/04/19 10:47:16;;;;;;;;;;;;;;;-128.00;-1.00;-1.00;103162;1259;1011093;-75
2024/04/19 10:49:44;;;;;;;;;;;;;;;-128.00;-1.00;-1.00;103160;1259;1002441;-74
2024/04/19 10:52:12;;;;;;;;;;;;;;;-128.00;-1.00;-1.00;103167;1259;1002607;-75
2024/04/19 10:54:39;;;;;;;;;;;;;;;-128.00;-1.00;-1.00;103212;1254;1002574;-81
2024/04/19 10:57:07;;;;;;;;;;;;;;;-128.00;-1.00;-1.00;103146;1257;1003294;-78
2024/04/19 10:59:34;;;;;;;;;;;;;;;-128.00;-1.00;-1.00;103181;1254;1002694;-78
2024/04/19 11:02:02;;;;;;;;;;;;;;;-128.00;-1.00;-1.00;103221;1254;1002823;-79
2024/04/19 11:04:30;;;;;;;;;;;;;;;-128.00;-1.00;-1.00;103396;1255;1013038;-76
2024/04/19 11:06:58;;;;;;;;;;;;;;;-128.00;-1.00;-1.00;103370;1254;1003866;-78
2024/04/19 11:09:25;;;;;;;;;;;;;;;-128.00;-1.00;-1.00;103231;1259;1004023;-76
2024/04/19 11:11:52;;;;;;;;;;;;;;;-128.00;-1.00;-1.00;103165;1259;1002578;-79
2024/04/19 11:14:23;;;;;;;;;;;;;;;-128.00;-1.00;-1.00;103165;1259;1002651;-76
2024/04/19 11:16:50;;;;;;;;;;;;;;;-128.00;-1.00;-1.00;103065;1254;1016657;-79
2024/04/19 11:19:17;;;;;;;;;;;;;;;-128.00;-1.00;-1.00;103132;1254;1003910;-73
2024/04/19 11:21:45;;;;;;;;;;;;;;;-128.00;-1.00;-1.00;103171;1254;1002101;-76
2024/04/19 11:24:13;;;;;;;;;;;;;;;-128.00;-1.00;-1.00;103187;1253;1002877;-76
2024/04/19 11:26:41;;;;;;;;;;;;;;;-128.00;-1.00;-1.00;103253;1254;1002602;-74
2024/04/19 11:29:09;;;;;;;;;;;;;;;-128.00;-1.00;-1.00;103471;1259;1012988;-74
2024/04/19 11:31:39;;;;;;;;;;;;;;;-128.00;-1.00;-1.00;103401;1255;1014343;-77
2024/04/19 11:34:07;;;;;;;;;;;;;;;-128.00;-1.00;-1.00;103242;1254;1003318;-76
2024/04/19 11:36:34;;;;;;;;;;;;;;;-128.00;-1.00;-1.00;103248;1254;1004984;-81
2024/04/19 11:39:02;;;;;;;;;;;;;;;-128.00;-1.00;-1.00;103205;1254;1002916;-75
2024/04/19 11:41:30;;;;;;;;;;;;;;;-128.00;-1.00;-1.00;103176;1259;1002649;-81
2024/04/19 11:43:58;;;;;;;;;;;;;;;-128.00;-1.00;-1.00;103194;1254;1002715;-76
2024/04/19 11:46:28;;;;;;;;;;;;;;;-128.00;-1.00;-1.00;103179;1254;1011417;-80
2024/04/19 11:48:57;;;;;;;;;;;;;;;-128.00;-1.00;-1.00;103215;1261;1011943;-76
2024/04/19 11:51:27;;;;;;;;;;;;;;;-128.00;-1.00;-1.00;103146;1254;1013503;-81
2024/04/19 11:53:55;;;;;;;;;;;;;;;-128.00;-1.00;-1.00;103166;1259;1013017;-79
2024/04/19 11:56:22;;;;;;;;;;;;;;;-128.00;-1.00;-1.00;103193;1254;1002844;-77
2024/04/19 11:58:53;;;;;;;;;;;;;;;-128.00;-1.00;-1.00;103209;1254;1002667;-79
2024/04/19 12:01:21;;;;;;;;;;;;;;;-128.00;-1.00;-1.00;103192;1254;1010908;-74
2024/04/19 12:03:49;;;;;;;;;;;;;;;-128.00;-1.00;-1.00;103186;1254;1014192;-78
2024/04/19 12:06:18;;;;;;;;;;;;;;;-128.00;-1.00;-1.00;103198;1254;1003091;-76
2024/04/19 12:08:46;;;;;;;;;;;;;;;-128.00;-1.00;-1.00;103183;1256;1015381;-76
2024/04/19 12:11:13;;;;;;;;;;;;;;;-128.00;-1.00;-1.00;103213;1255;1002830;-76
2024/04/19 12:13:45;;;;;;;;;;;;;;;-128.00;-1.00;-1.00;103211;1259;1002630;-76
2024/04/19 12:16:32;;;;;;;;;;;;;;;-128.00;-1.00;-1.00;103195;1259;1014210;-74
2024/04/19 12:19:13;;;;;;;;;;;;;;;-128.00;-1.00;-1.00;103183;1254;1012627;-73
2024/04/19 12:21:41;;;;;;;;;;;;;;;-128.00;-1.00;-1.00;103179;1254;1003545;-75
2024/04/19 12:24:10;;;;;;;;;;;;;;;-128.00;-1.00;-1.00;103210;1254;1010115;-75
2024/04/19 12:26:39;;;;;;;;;;;;;;;-128.00;-1.00;-1.00;103175;1259;1011101;-74
2024/04/19 12:29:07;;;;;;;;;;;;;;;-128.00;-1.00;-1.00;103231;1254;1004277;-76
2024/04/19 12:31:36;;;;;;;;;;;;;;;-128.00;-1.00;-1.00;103252;1254;1012949;-72
2024/04/19 12:34:04;;;;;;;;;;;;;;;-128.00;-1.00;-1.00;103231;1254;1003247;-74
2024/04/19 12:36:33;;;;;;;;;;;;;;;-128.00;-1.00;-1.00;103203;1259;1010937;-74
2024/04/19 12:39:02;;;;;;;;;;;;;;;-128.00;-1.00;-1.00;103221;1254;1010615;-74
2024/04/19 12:41:31;;;;;;;;;;;;;;;-128.00;-1.00;-1.00;103206;1257;1002445;-74
2024/04/19 12:43:59;;;;;;;;;;;;;;;-128.00;-1.00;-1.00;103237;1255;1012902;-75
2024/04/19 12:46:27;;;;;;;;;;;;;;;-128.00;-1.00;-1.00;103275;1254;1016377;-76